createdAt,value
2023-04-02T00:00:15.120Z,14.90
2023-04-02T00:03:05.159Z,14.90
2023-04-02T00:05:55.966Z,14.90
2023-04-02T00:08:29.426Z,14.90
2023-04-02T00:11:00.410Z,14.90
2023-04-02T00:13:35.567Z,14.90
2023-04-02T00:16:06.597Z,14.80
2023-04-02T00:18:38.105Z,14.80
2023-04-02T00:21:20.042Z,14.80
2023-04-02T00:23:49.603Z,14.80
2023-04-02T00:26:24.495Z,14.70
2023-04-02T00:28:53.517Z,14.70
2023-04-02T00:31:22.353Z,14.60
2023-04-02T00:33:51.530Z,14.60
2023-04-02T00:36:22.106Z,14.60
2023-04-02T00:38:52.212Z,14.50
2023-04-02T00:41:27.251Z,14.50
2023-04-02T00:43:57.821Z,14.50
2023-04-02T00:46:32.337Z,14.50
2023-04-02T00:49:08.056Z,14.50
2023-04-02T00:51:41.771Z,14.40
2023-04-02T00:54:15.875Z,14.40
2023-04-02T00:56:45.898Z,14.40
2023-04-02T00:59:21.569Z,14.30
2023-04-02T01:01:55.338Z,14.30
2023-04-02T01:04:34.454Z,14.30
2023-04-02T01:07:06.561Z,14.30
2023-04-02T01:10:00.043Z,14.20
2023-04-02T01:12:42.194Z,14.20
2023-04-02T01:15:16.633Z,14.10
2023-04-02T01:17:59.939Z,14.10
2023-04-02T01:20:55.266Z,14.10
2023-04-02T01:23:29.653Z,14.00
2023-04-02T01:26:06.828Z,14.00
2023-04-02T01:28:50.248Z,14.00
2023-04-02T01:31:18.987Z,13.90
2023-04-02T01:33:47.371Z,13.90
2023-04-02T01:36:24.191Z,13.90
2023-04-02T01:38:59.899Z,13.90
2023-04-02T01:41:34.253Z,13.80
2023-04-02T01:44:08.725Z,13.80
2023-04-02T01:46:41.076Z,13.70
2023-04-02T01:49:15.453Z,13.60
2023-04-02T01:51:46.722Z,13.60
2023-04-02T01:54:18.050Z,13.50
2023-04-02T01:56:48.186Z,13.50
2023-04-02T01:59:22.471Z,13.50
2023-04-02T02:01:55.631Z,13.50
2023-04-02T02:04:23.824Z,13.50
2023-04-02T02:06:52.242Z,13.50
2023-04-02T02:09:25.076Z,13.50
2023-04-02T02:11:53.542Z,13.40
2023-04-02T02:14:24.870Z,13.40
2023-04-02T02:16:56.666Z,13.40
2023-04-02T02:19:29.795Z,13.50
2023-04-02T02:22:02.182Z,13.50
2023-04-02T02:24:32.987Z,13.50
2023-04-02T02:27:22.794Z,13.50
2023-04-02T02:29:55.269Z,13.50
2023-04-02T02:32:28.495Z,13.50
2023-04-02T02:35:02.816Z,13.40
2023-04-02T02:37:36.245Z,13.40
2023-04-02T02:40:12.265Z,13.40
2023-04-02T02:42:43.954Z,13.40
2023-04-02T02:45:17.192Z,13.40
2023-04-02T02:47:47.235Z,13.30
2023-04-02T02:50:20.687Z,13.40
2023-04-02T02:52:53.465Z,13.30
2023-04-02T02:55:24.631Z,13.30
2023-04-02T02:57:57.058Z,13.30
2023-04-02T03:00:27.262Z,13.30
2023-04-02T03:02:57.474Z,13.30
2023-04-02T03:05:29.240Z,13.20
2023-04-02T03:07:59.339Z,13.20
2023-04-02T03:10:35.185Z,13.20
2023-04-02T03:13:13.505Z,13.20
2023-04-02T03:15:55.221Z,13.20
2023-04-02T03:18:36.080Z,13.30
2023-04-02T03:21:12.069Z,13.30
2023-04-02T03:23:43.666Z,13.30
2023-04-02T03:26:16.587Z,13.30
2023-04-02T03:28:49.261Z,13.40
2023-04-02T03:31:25.514Z,13.20
2023-04-02T03:33:58.381Z,13.20
2023-04-02T03:36:31.457Z,13.20
2023-04-02T03:39:10.178Z,13.10
2023-04-02T03:41:42.618Z,13.00
2023-04-02T03:44:21.173Z,13.00
2023-04-02T03:46:57.669Z,13.00
2023-04-02T03:49:30.541Z,13.00
2023-04-02T03:52:05.903Z,12.90
2023-04-02T03:54:34.392Z,12.90
2023-04-02T03:57:02.776Z,12.90
2023-04-02T03:59:39.123Z,12.90
2023-04-02T04:02:34.403Z,12.90
2023-04-02T04:05:04.782Z,12.90
2023-04-02T04:07:37.622Z,12.90
2023-04-02T04:10:08.315Z,12.90
2023-04-02T04:12:40.966Z,12.90
2023-04-02T04:15:17.437Z,12.90
2023-04-02T04:17:53.976Z,12.90
2023-04-02T04:20:25.509Z,12.90
2023-04-02T04:22:56.018Z,12.90
2023-04-02T04:25:30.348Z,12.90
2023-04-02T04:28:07.901Z,12.90
2023-04-02T04:30:51.014Z,12.90
2023-04-02T04:33:25.480Z,12.80
2023-04-02T04:35:58.290Z,12.70
2023-04-02T04:38:33.788Z,12.70
2023-04-02T04:41:06.075Z,12.70
2023-04-02T04:43:43.877Z,12.70
2023-04-02T04:46:15.921Z,12.70
2023-04-02T04:48:54.358Z,12.80
2023-04-02T04:51:25.766Z,12.80
2023-04-02T04:53:56.153Z,12.80
2023-04-02T04:56:27.650Z,12.80
2023-04-02T04:59:01.706Z,12.80
2023-04-02T05:01:36.485Z,12.80
2023-04-02T05:04:14.040Z,12.80
2023-04-02T05:06:45.953Z,12.80
2023-04-02T05:09:21.133Z,12.80
2023-04-02T05:11:53.945Z,12.80
2023-04-02T05:14:28.265Z,12.80
2023-04-02T05:17:01.965Z,12.80
2023-04-02T05:19:35.870Z,12.80
2023-04-02T05:22:14.108Z,12.80
2023-04-02T05:24:51.346Z,12.70
2023-04-02T05:27:26.273Z,12.70
2023-04-02T05:30:02.267Z,12.60
2023-04-02T05:32:34.438Z,12.50
2023-04-02T05:35:06.717Z,12.50
2023-04-02T05:37:35.834Z,12.50
2023-04-02T05:40:15.309Z,12.50
2023-04-02T05:42:48.797Z,12.60
2023-04-02T05:45:24.196Z,12.60
2023-04-02T05:47:57.355Z,12.60
2023-04-02T05:50:31.637Z,12.60
2023-04-02T05:53:05.580Z,12.60
2023-04-02T05:55:42.939Z,12.60
2023-04-02T05:58:34.760Z,12.70
2023-04-02T06:01:23.060Z,12.60
2023-04-02T06:03:58.455Z,12.60
2023-04-02T06:06:45.346Z,12.60
2023-04-02T06:09:19.310Z,12.60
2023-04-02T06:11:52.121Z,12.60
2023-04-02T06:14:20.606Z,12.60
2023-04-02T06:16:49.096Z,12.60
2023-04-02T06:19:22.252Z,12.60
2023-04-02T06:21:54.860Z,12.60
2023-04-02T06:24:26.423Z,12.60
2023-04-02T06:26:59.015Z,12.60
2023-04-02T06:29:34.053Z,12.60
2023-04-02T06:32:03.480Z,12.60
2023-04-02T06:34:33.108Z,12.60
2023-04-02T06:37:05.076Z,12.60
2023-04-02T06:39:33.256Z,12.60
2023-04-02T06:42:05.427Z,12.70
2023-04-02T06:44:36.871Z,12.70
2023-04-02T06:47:08.550Z,12.70
2023-04-02T06:49:43.529Z,12.70
2023-04-02T06:52:20.469Z,12.70
2023-04-02T06:54:49.054Z,12.70
2023-04-02T06:57:17.245Z,12.70
2023-04-02T06:59:45.525Z,12.80
2023-04-02T07:02:28.607Z,12.80
2023-04-02T07:05:03.007Z,12.80
2023-04-02T07:07:32.662Z,12.90
2023-04-02T07:10:00.787Z,12.90
2023-04-02T07:12:29.097Z,12.90
2023-04-02T07:14:57.239Z,13.00
2023-04-02T07:17:25.576Z,13.00
2023-04-02T07:19:53.753Z,13.00
2023-04-02T07:22:22.194Z,13.00
2023-04-02T07:24:51.759Z,13.10
2023-04-02T07:27:19.869Z,13.10
2023-04-02T07:29:47.945Z,13.20
2023-04-02T07:32:16.082Z,13.10
2023-04-02T07:34:44.250Z,13.20
2023-04-02T07:37:15.257Z,13.20
2023-04-02T07:39:43.409Z,13.30
2023-04-02T07:42:12.927Z,13.30
2023-04-02T07:44:41.157Z,13.30
2023-04-02T07:47:10.684Z,13.30
2023-04-02T07:49:38.872Z,13.40
2023-04-02T07:52:07.386Z,13.40
2023-04-02T07:54:35.937Z,13.40
2023-04-02T07:57:04.309Z,13.50
2023-04-02T07:59:33.761Z,13.50
2023-04-02T08:02:02.950Z,13.40
2023-04-02T08:04:31.407Z,13.40
2023-04-02T08:06:59.506Z,13.50
2023-04-02T08:09:27.645Z,13.50
2023-04-02T08:11:56.121Z,13.60
2023-04-02T08:14:24.252Z,13.60
2023-04-02T08:16:56.026Z,13.60
2023-04-02T08:19:24.618Z,13.70
2023-04-02T08:21:54.393Z,13.70
2023-04-02T08:24:23.018Z,13.70
2023-04-02T08:26:53.550Z,13.70
2023-04-02T08:29:21.668Z,13.80
2023-04-02T08:31:50.208Z,13.80
2023-04-02T08:34:19.742Z,13.80
2023-04-02T08:36:47.928Z,13.90
2023-04-02T08:39:16.061Z,13.90
2023-04-02T08:41:49.952Z,13.90
2023-04-02T08:44:40.829Z,14.00
2023-04-02T08:47:10.882Z,14.00
2023-04-02T08:49:48.446Z,13.90
2023-04-02T08:52:24.660Z,13.80
2023-04-02T08:54:53.533Z,13.70
2023-04-02T08:57:32.802Z,13.70
2023-04-02T09:00:07.229Z,13.70
2023-04-02T09:02:40.694Z,13.70
2023-04-02T09:05:19.910Z,13.80
2023-04-02T09:07:50.010Z,13.80
2023-04-02T09:10:19.237Z,13.90
2023-04-02T09:12:52.245Z,13.90
2023-04-02T09:15:30.026Z,13.90
2023-04-02T09:18:01.187Z,14.00
2023-04-02T09:20:30.840Z,14.00
2023-04-02T09:22:59.247Z,14.10
2023-04-02T09:25:29.823Z,14.10
2023-04-02T09:27:59.448Z,14.10
2023-04-02T09:30:42.782Z,14.10
2023-04-02T09:33:11.443Z,14.10
2023-04-02T09:35:56.414Z,14.00
2023-04-02T09:38:29.066Z,14.10
2023-04-02T09:41:00.734Z,14.10
2023-04-02T09:43:30.341Z,14.10
2023-04-02T09:46:01.197Z,14.20
2023-04-02T09:48:31.843Z,14.20
2023-04-02T09:51:14.793Z,14.30
2023-04-02T09:53:44.842Z,14.30
2023-04-02T09:56:18.861Z,14.20
2023-04-02T09:59:02.454Z,14.00
2023-04-02T10:01:33.274Z,14.00
2023-04-02T10:04:03.627Z,14.00
2023-04-02T10:06:35.149Z,14.00
2023-04-02T10:09:21.766Z,13.90
2023-04-02T10:11:50.971Z,14.00
2023-04-02T10:14:21.163Z,13.90
2023-04-02T10:16:53.103Z,13.90
2023-04-02T10:19:30.778Z,13.90
2023-04-02T10:22:04.295Z,13.90
2023-04-02T10:24:32.538Z,13.90
2023-04-02T10:27:17.089Z,13.90
2023-04-02T10:30:06.838Z,13.90
2023-04-02T10:32:42.091Z,13.90
2023-04-02T10:35:19.617Z,13.90
2023-04-02T10:38:08.408Z,14.00
2023-04-02T10:40:41.026Z,14.00
2023-04-02T10:43:31.963Z,14.00
2023-04-02T10:46:07.031Z,14.00
2023-04-02T10:48:41.211Z,14.10
2023-04-02T10:51:16.915Z,14.10
2023-04-02T10:53:55.272Z,14.20
2023-04-02T10:56:26.338Z,14.30
2023-04-02T10:58:58.690Z,14.30
2023-04-02T11:01:29.914Z,14.30
2023-04-02T11:04:02.532Z,14.30
2023-04-02T11:06:34.646Z,14.30
2023-04-02T11:09:07.792Z,14.30
2023-04-02T11:11:41.163Z,14.40
2023-04-02T11:14:15.869Z,14.40
2023-04-02T11:16:45.060Z,14.50
2023-04-02T11:19:27.136Z,14.50
2023-04-02T11:21:59.625Z,14.60
2023-04-02T11:24:38.423Z,14.70
2023-04-02T11:27:14.844Z,14.70
2023-04-02T11:29:44.932Z,14.80
2023-04-02T11:32:40.615Z,14.90
2023-04-02T11:35:38.541Z,15.00
2023-04-02T11:38:39.809Z,15.00
2023-04-02T11:41:09.333Z,15.10
2023-04-02T11:44:00.551Z,15.10
2023-04-02T11:46:52.460Z,15.10
2023-04-02T11:50:04.389Z,15.10
2023-04-02T11:52:36.618Z,15.20
2023-04-02T11:55:29.859Z,15.20
2023-04-02T11:58:32.398Z,15.20
2023-04-02T12:01:46.763Z,15.30
2023-04-02T12:04:43.811Z,15.30
2023-04-02T12:07:28.004Z,15.30
2023-04-02T12:09:59.266Z,15.20
2023-04-02T12:12:30.112Z,15.20
2023-04-02T12:15:00.935Z,15.20
2023-04-02T12:17:34.892Z,15.20
2023-04-02T12:20:20.691Z,15.20
2023-04-02T12:22:51.858Z,15.20
2023-04-02T12:25:29.265Z,15.20
2023-04-02T12:28:09.496Z,15.30
2023-04-02T12:30:40.164Z,15.20
2023-04-02T12:33:27.247Z,15.20
2023-04-02T12:35:58.969Z,15.20
2023-04-02T12:38:28.724Z,15.20
2023-04-02T12:40:58.665Z,15.20
2023-04-02T12:43:31.477Z,15.30
2023-04-02T12:46:04.298Z,15.30
2023-04-02T12:48:33.296Z,15.30
2023-04-02T12:51:02.016Z,15.30
2023-04-02T12:53:35.650Z,15.40
2023-04-02T12:56:04.879Z,15.40
2023-04-02T12:58:36.710Z,15.40
2023-04-02T13:01:19.404Z,15.30
2023-04-02T13:04:01.381Z,15.40
2023-04-02T13:06:30.685Z,15.40
2023-04-02T13:09:00.141Z,15.40
2023-04-02T13:11:36.177Z,15.40
2023-04-02T13:14:06.309Z,15.50
2023-04-02T13:16:37.586Z,15.50
2023-04-02T13:19:22.162Z,15.50
2023-04-02T13:21:52.548Z,15.60
2023-04-02T13:24:22.595Z,15.60
2023-04-02T13:26:51.251Z,15.60
2023-04-02T13:29:24.221Z,15.60
2023-04-02T13:31:55.780Z,15.60
2023-04-02T13:34:24.887Z,15.70
2023-04-02T13:36:53.010Z,15.70
2023-04-02T13:39:21.695Z,15.70
2023-04-02T13:41:53.024Z,15.70
2023-04-02T13:44:24.145Z,15.70
2023-04-02T13:46:55.008Z,15.70
2023-04-02T13:49:23.749Z,15.80
2023-04-02T13:51:53.718Z,15.80
2023-04-02T13:54:26.309Z,15.80
2023-04-02T13:56:55.940Z,15.80
2023-04-02T13:59:24.415Z,15.80
2023-04-02T14:01:57.186Z,15.90
2023-04-02T14:04:30.779Z,15.90
2023-04-02T14:07:23.381Z,15.80
2023-04-02T14:10:07.689Z,15.90
2023-04-02T14:12:45.419Z,15.90
2023-04-02T14:15:27.494Z,15.90
2023-04-02T14:18:13.257Z,15.90
2023-04-02T14:20:51.820Z,15.90
2023-04-02T14:23:34.159Z,15.90
2023-04-02T14:26:14.695Z,15.80
2023-04-02T14:28:57.407Z,15.80
2023-04-02T14:31:31.654Z,15.80
2023-04-02T14:34:07.880Z,15.90
2023-04-02T14:36:43.822Z,15.90
2023-04-02T14:39:18.641Z,16.00
2023-04-02T14:41:53.490Z,16.10
2023-04-02T14:44:26.502Z,16.00
2023-04-02T14:47:01.704Z,16.00
2023-04-02T14:49:39.577Z,16.00
2023-04-02T14:52:13.034Z,15.90
2023-04-02T14:54:50.189Z,16.00
2023-04-02T14:57:23.612Z,16.00
2023-04-02T15:00:01.806Z,16.10
2023-04-02T15:02:39.312Z,16.10
2023-04-02T15:05:16.659Z,16.10
2023-04-02T15:07:51.082Z,16.10
2023-04-02T15:10:27.417Z,16.10
2023-04-02T15:12:57.901Z,16.20
2023-04-02T15:15:40.572Z,16.20
2023-04-02T15:18:13.885Z,16.20
2023-04-02T15:20:50.369Z,16.30
2023-04-02T15:23:29.891Z,16.30
2023-04-02T15:26:09.033Z,16.40
2023-04-02T15:28:42.694Z,16.40
2023-04-02T15:31:15.380Z,16.40
2023-04-02T15:33:46.099Z,16.50
2023-04-02T15:36:38.072Z,16.50
2023-04-02T15:39:22.248Z,16.50
2023-04-02T15:42:05.065Z,16.50
2023-04-02T15:44:35.033Z,16.50
2023-04-02T15:47:13.291Z,16.50
2023-04-02T15:49:44.082Z,16.50
2023-04-02T15:52:22.495Z,16.40
2023-04-02T15:55:03.353Z,16.40
2023-04-02T15:58:02.404Z,16.40
2023-04-02T16:00:31.807Z,16.40
2023-04-02T16:03:20.541Z,16.40
2023-04-02T16:05:58.735Z,16.40
2023-04-02T16:08:50.456Z,16.40
2023-04-02T16:11:18.581Z,16.40
2023-04-02T16:13:47.495Z,16.30
2023-04-02T16:16:19.456Z,16.30
2023-04-02T16:18:56.791Z,16.30
2023-04-02T16:21:30.213Z,16.30
2023-04-02T16:23:59.738Z,16.30
2023-04-02T16:26:52.437Z,16.30
2023-04-02T16:29:55.851Z,16.30
2023-04-02T16:32:51.110Z,16.20
2023-04-02T16:35:42.383Z,16.30
2023-04-02T16:38:22.440Z,16.30
2023-04-02T16:41:07.630Z,16.30
2023-04-02T16:43:45.293Z,16.20
2023-04-02T16:46:38.242Z,16.30
2023-04-02T16:49:20.944Z,16.30
2023-04-02T16:51:56.814Z,16.30
2023-04-02T16:54:31.712Z,16.30
2023-04-02T16:57:13.734Z,16.30
2023-04-02T16:59:49.653Z,16.20
2023-04-02T17:02:27.931Z,16.20
2023-04-02T17:05:03.344Z,16.10
2023-04-02T17:07:36.513Z,16.10
2023-04-02T17:10:22.890Z,16.10
2023-04-02T17:13:00.183Z,16.00
2023-04-02T17:15:33.761Z,16.00
2023-04-02T17:18:03.034Z,16.10
2023-04-02T17:20:31.219Z,16.00
2023-04-02T17:23:00.118Z,16.00
2023-04-02T17:25:33.280Z,16.00
2023-04-02T17:28:03.746Z,16.00
2023-04-02T17:30:39.387Z,15.90
2023-04-02T17:33:12.333Z,16.00
2023-04-02T17:35:49.588Z,15.90
2023-04-02T17:38:28.162Z,16.00
2023-04-02T17:41:04.389Z,16.00
2023-04-02T17:43:44.823Z,16.00
2023-04-02T17:46:20.409Z,15.90
2023-04-02T17:48:52.656Z,15.90
2023-04-02T17:51:31.865Z,16.00
2023-04-02T17:54:14.710Z,16.00
2023-04-02T17:56:59.954Z,16.00
2023-04-02T17:59:56.615Z,16.00
2023-04-02T18:02:51.991Z,16.00
2023-04-02T18:05:29.222Z,16.00
2023-04-02T18:08:06.149Z,16.00
2023-04-02T18:10:41.190Z,15.90
2023-04-02T18:13:21.247Z,15.90
2023-04-02T18:16:12.109Z,15.90
2023-04-02T18:18:57.508Z,15.80
2023-04-02T18:21:32.297Z,15.80
2023-04-02T18:24:13.990Z,15.80
2023-04-02T18:26:53.936Z,15.80
2023-04-02T18:29:30.987Z,15.70
2023-04-02T18:32:21.087Z,15.70
2023-04-02T18:34:59.876Z,15.70
2023-04-02T18:37:38.212Z,15.60
2023-04-02T18:40:22.851Z,15.60
2023-04-02T18:43:03.611Z,15.50
2023-04-02T18:45:40.868Z,15.50
2023-04-02T18:48:21.619Z,15.50
2023-04-02T18:50:50.340Z,15.50
2023-04-02T18:53:20.386Z,15.40
2023-04-02T18:55:55.191Z,15.40
2023-04-02T18:58:28.101Z,15.40
2023-04-02T19:00:57.309Z,15.40
2023-04-02T19:03:32.542Z,15.30
2023-04-02T19:06:03.897Z,15.30
2023-04-02T19:08:37.246Z,15.30
2023-04-02T19:11:08.404Z,15.20
2023-04-02T19:13:36.714Z,15.20
2023-04-02T19:16:25.459Z,15.20
2023-04-02T19:19:03.788Z,15.20
2023-04-02T19:21:40.189Z,15.20
2023-04-02T19:24:23.977Z,15.10
2023-04-02T19:26:58.184Z,15.10
2023-04-02T19:29:34.719Z,15.10
2023-04-02T19:32:12.918Z,15.10
2023-04-02T19:34:48.710Z,15.00
2023-04-02T19:37:24.192Z,15.00
2023-04-02T19:40:07.832Z,15.00
2023-04-02T19:42:46.264Z,15.00
2023-04-02T19:45:31.392Z,15.00
2023-04-02T19:48:03.840Z,14.90
2023-04-02T19:50:33.392Z,14.90
2023-04-02T19:53:01.524Z,14.90
2023-04-02T19:55:29.703Z,14.90
2023-04-02T19:58:08.806Z,14.80
2023-04-02T20:00:41.197Z,14.80
2023-04-02T20:03:09.452Z,14.80
2023-04-02T20:05:39.132Z,14.80
2023-04-02T20:08:07.459Z,14.80
2023-04-02T20:10:35.918Z,14.70
2023-04-02T20:13:04.764Z,14.70
2023-04-02T20:15:32.961Z,14.70
2023-04-02T20:18:01.222Z,14.60
2023-04-02T20:20:29.567Z,14.60
2023-04-02T20:22:59.100Z,14.50
2023-04-02T20:25:27.174Z,14.50
2023-04-02T20:27:55.549Z,14.50
2023-04-02T20:30:23.724Z,14.40
2023-04-02T20:32:51.994Z,14.50
2023-04-02T20:35:20.374Z,14.40
2023-04-02T20:37:48.666Z,14.40
2023-04-02T20:40:18.261Z,14.40
2023-04-02T20:42:46.381Z,14.40
2023-04-02T20:45:14.652Z,14.40
2023-04-02T20:47:42.847Z,14.40
2023-04-02T20:50:11.802Z,14.40
2023-04-02T20:52:39.884Z,14.40
2023-04-02T20:55:09.694Z,14.40
2023-04-02T20:57:39.651Z,14.40
2023-04-02T21:00:10.272Z,14.40
2023-04-02T21:02:38.502Z,14.40
2023-04-02T21:05:07.119Z,14.40
2023-04-02T21:07:35.507Z,14.40
2023-04-02T21:10:03.701Z,14.40
2023-04-02T21:12:32.352Z,14.30
2023-04-02T21:15:02.802Z,14.30
2023-04-02T21:17:31.419Z,14.30
2023-04-02T21:19:59.646Z,14.30
2023-04-02T21:22:27.810Z,14.30
2023-04-02T21:24:56.009Z,14.30
2023-04-02T21:27:25.984Z,14.30
2023-04-02T21:29:54.356Z,14.30
2023-04-02T21:32:24.038Z,14.20
2023-04-02T21:34:52.258Z,14.20
2023-04-02T21:37:20.500Z,14.20
2023-04-02T21:39:48.624Z,14.20
2023-04-02T21:42:16.889Z,14.20
2023-04-02T21:44:45.208Z,14.20
2023-04-02T21:47:13.509Z,14.20
2023-04-02T21:49:43.172Z,14.20
2023-04-02T21:52:11.900Z,14.10
2023-04-02T21:54:40.024Z,14.10
2023-04-02T21:57:08.155Z,14.10
2023-04-02T21:59:36.336Z,14.10
2023-04-02T22:02:04.857Z,14.10
2023-04-02T22:04:33.485Z,14.10
2023-04-02T22:07:03.337Z,14.10
2023-04-02T22:09:31.609Z,14.10
2023-04-02T22:12:00.173Z,14.10
2023-04-02T22:14:28.678Z,14.10
2023-04-02T22:16:58.747Z,14.10
2023-04-02T22:19:27.705Z,14.10
2023-04-02T22:21:56.406Z,14.10
2023-04-02T22:24:26.046Z,14.10
2023-04-02T22:26:54.337Z,14.00
2023-04-02T22:29:22.629Z,14.00
2023-04-02T22:31:50.855Z,14.00
2023-04-02T22:34:19.068Z,14.00
2023-04-02T22:36:47.392Z,14.00
2023-04-02T22:39:17.102Z,14.00
2023-04-02T22:41:46.970Z,13.90
2023-04-02T22:44:16.485Z,13.90
2023-04-02T22:46:44.815Z,13.90
2023-04-02T22:49:18.888Z,13.90
2023-04-02T22:51:47.109Z,13.90
2023-04-02T22:54:15.440Z,13.90
2023-04-02T22:56:43.568Z,13.90
2023-04-02T22:59:13.181Z,13.90
2023-04-02T23:01:41.983Z,13.90
2023-04-02T23:04:10.423Z,13.90
2023-04-02T23:06:38.575Z,13.90
2023-04-02T23:09:06.777Z,13.90
2023-04-02T23:11:35.030Z,13.90
2023-04-02T23:14:03.199Z,13.90
2023-04-02T23:16:32.747Z,13.90
2023-04-02T23:19:00.937Z,13.80
2023-04-02T23:21:29.072Z,13.80
2023-04-02T23:23:57.575Z,13.80
2023-04-02T23:26:31.239Z,13.70
2023-04-02T23:29:01.936Z,13.70
2023-04-02T23:31:30.681Z,13.70
2023-04-02T23:34:00.336Z,13.70
2023-04-02T23:36:30.085Z,13.70
2023-04-02T23:39:01.410Z,13.70
2023-04-02T23:41:31.324Z,13.70
2023-04-02T23:44:00.478Z,13.60
2023-04-02T23:46:30.617Z,13.60
2023-04-02T23:49:00.748Z,13.60
2023-04-02T23:51:31.269Z,13.60
2023-04-02T23:53:59.694Z,13.60
2023-04-02T23:56:28.166Z,13.60
2023-04-02T23:58:56.411Z,13.50
